Check out our new PWSWeather beta!
PWSweather.com
Personal Weather Stations
Station Observations
GRD01
Warsaw, LesznoPL 05-084

WarsawLesznoPL 05-084

Lat: 52.257404, Lon: 20.564847

Elevation: 298

Station Type: WH3080

http://pogoda.kampinos.waw.pl

High Low Average
Temperature 81.1°F27.3°C 63.1°F17.3°C 71.4°F21.9°C
Dew Point 66.3°F19.1°C 56.6°F13.7°C 61.4°F16.3°C
Winds 9.2 mph 14.8 kmh Calm Calm 2.0 mph SSW3.2 kmh SSW
Wind Gusts 18.3 mph29.5 kmh 1.6 mph2.6 kmh 5.0 mph8.0 kmh
Humidity 96% 50% 72%
Pressure 30.26 in1024.7 mb 30.14 in1020.7 mb -
Precipitation 0.12 in3.0 mm - -
Hour Temp Dew Point Humidity Winds Wind Gusts Pressure Precip Precip Rate Daily Precip Total
12:00 AM 66.6°F19.2°C 56.9°F13.8°C 71% 0.7 mph NE1.1 kmh NE 2.2 mph3.5 kmh 30.23 in1023.7 mb 0.00 in0.0 mm 0.00 in0.0 mm 0.00 in0.0 mm
12:15 AM 66.0°F18.9°C 56.7°F13.7°C 72% 2.2 mph E3.5 kmh E 3.8 mph6.1 kmh 30.23 in1023.7 mb 0.00 in0.0 mm 0.00 in0.0 mm 0.00 in0.0 mm
12:30 AM 65.8°F18.8°C 56.6°F13.7°C 72% 1.6 mph E2.6 kmh E 6.9 mph11.1 kmh 30.22 in1023.4 mb 0.00 in0.0 mm 0.00 in0.0 mm 0.00 in0.0 mm
12:45 AM 66.0°F18.9°C 57.1°F13.9°C 73% 3.1 mph ESE5.0 kmh ESE 4.5 mph7.2 kmh 30.22 in1023.4 mb 0.00 in0.0 mm 0.00 in0.0 mm 0.00 in0.0 mm
01:00 AM 66.0°F18.9°C 57.1°F13.9°C 73% 1.6 mph SE2.6 kmh SE 3.1 mph5.0 kmh 30.23 in1023.7 mb 0.00 in0.0 mm 0.00 in0.0 mm 0.00 in0.0 mm
01:15 AM 65.7°F18.7°C 56.8°F13.8°C 73% 0.7 mph S1.1 kmh S 3.8 mph6.1 kmh 30.24 in1024.0 mb 0.00 in0.0 mm 0.00 in0.0 mm 0.00 in0.0 mm
01:30 AM 65.3°F18.5°C 56.8°F13.8°C 74% 1.6 mph WSW2.6 kmh WSW 6.9 mph11.1 kmh 30.24 in1024.0 mb 0.00 in0.0 mm 0.00 in0.0 mm 0.00 in0.0 mm
01:45 AM 66.2°F19.0°C 57.7°F14.3°C 74% 7.6 mph W12.2 kmh W 11.4 mph18.3 kmh 30.26 in1024.7 mb 0.00 in0.0 mm 0.00 in0.0 mm 0.00 in0.0 mm
02:00 AM 66.4°F19.1°C 58.9°F14.9°C 77% 6.0 mph WNW9.7 kmh WNW 15.2 mph24.5 kmh 30.24 in1024.0 mb 0.05 in1.3 mm 0.07 in1.8 mm 0.05 in1.3 mm
02:15 AM 65.1°F18.4°C 58.8°F14.9°C 80% 1.6 mph SW2.6 kmh SW 7.6 mph12.2 kmh 30.22 in1023.4 mb 0.07 in1.8 mm 0.08 in2.0 mm 0.07 in1.8 mm
02:30 AM 64.0°F17.8°C 58.1°F14.5°C 81% 3.8 mph NNE6.1 kmh NNE 6.0 mph9.7 kmh 30.22 in1023.4 mb 0.08 in2.0 mm 0.04 in1.0 mm 0.08 in2.0 mm
02:45 AM 63.7°F17.6°C 58.4°F14.7°C 83% 1.6 mph NNE2.6 kmh NNE 4.5 mph7.2 kmh 30.22 in1023.4 mb 0.08 in2.0 mm 0.00 in0.0 mm 0.08 in2.0 mm
03:00 AM 63.5°F17.5°C 58.9°F14.9°C 85% 2.2 mph N3.5 kmh N 4.5 mph7.2 kmh 30.22 in1023.4 mb 0.02 in0.5 mm 0.00 in0.0 mm 0.08 in2.0 mm
03:15 AM 63.3°F17.4°C 60.3°F15.7°C 90% 1.6 mph S2.6 kmh S 4.5 mph7.2 kmh 30.22 in1023.4 mb 0.01 in0.3 mm 0.00 in0.0 mm 0.08 in2.0 mm
03:30 AM 63.1°F17.3°C 60.5°F15.8°C 91% 0.7 mph S1.1 kmh S 3.8 mph6.1 kmh 30.23 in1023.7 mb 0.00 in0.0 mm 0.00 in0.0 mm 0.08 in2.0 mm
03:45 AM 63.1°F17.3°C 60.8°F16.0°C 92% 1.6 mph SW2.6 kmh SW 4.5 mph7.2 kmh 30.23 in1023.7 mb 0.00 in0.0 mm 0.00 in0.0 mm 0.08 in2.0 mm
04:00 AM 63.3°F17.4°C 61.0°F16.1°C 92% 1.6 mph WSW2.6 kmh WSW 4.5 mph7.2 kmh 30.23 in1023.7 mb 0.04 in1.0 mm 0.05 in1.3 mm 0.12 in3.0 mm
04:15 AM 63.3°F17.4°C 61.3°F16.3°C 93% 0.7 mph WSW1.1 kmh WSW 2.2 mph3.5 kmh 30.23 in1023.7 mb 0.04 in1.0 mm 0.00 in0.0 mm 0.12 in3.0 mm
04:30 AM 63.3°F17.4°C 61.3°F16.3°C 93% Calm Calm 2.2 mph3.5 kmh 30.24 in1024.0 mb 0.04 in1.0 mm 0.00 in0.0 mm 0.12 in3.0 mm
04:45 AM 63.3°F17.4°C 61.6°F16.4°C 94% 0.7 mph N1.1 kmh N 2.2 mph3.5 kmh 30.24 in1024.0 mb 0.04 in1.0 mm 0.00 in0.0 mm 0.12 in3.0 mm
05:00 AM 63.3°F17.4°C 61.6°F16.4°C 94% Calm Calm 2.2 mph3.5 kmh 30.24 in1024.0 mb 0.00 in0.0 mm 0.00 in0.0 mm 0.12 in3.0 mm
05:15 AM 63.7°F17.6°C 61.6°F16.4°C 93% Calm Calm 1.6 mph2.6 kmh 30.24 in1024.0 mb 0.00 in0.0 mm 0.00 in0.0 mm 0.12 in3.0 mm
05:30 AM 64.2°F17.9°C 62.2°F16.8°C 93% 1.6 mph W2.6 kmh W 2.2 mph3.5 kmh 30.24 in1024.0 mb 0.00 in0.0 mm 0.00 in0.0 mm 0.12 in3.0 mm
05:45 AM 64.4°F18.0°C 62.6°F17.0°C 94% 2.2 mph S3.5 kmh S 3.8 mph6.1 kmh 30.24 in1024.0 mb 0.00 in0.0 mm 0.00 in0.0 mm 0.12 in3.0 mm
06:00 AM 64.6°F18.1°C 62.8°F17.1°C 94% 2.2 mph S3.5 kmh S 5.4 mph8.7 kmh 30.24 in1024.0 mb 0.00 in0.0 mm 0.00 in0.0 mm 0.12 in3.0 mm
06:15 AM 64.8°F18.2°C 63.3°F17.4°C 95% 2.2 mph SSE3.5 kmh SSE 4.5 mph7.2 kmh 30.24 in1024.0 mb 0.00 in0.0 mm 0.00 in0.0 mm 0.12 in3.0 mm
06:30 AM 65.3°F18.5°C 63.8°F17.7°C 95% 1.6 mph S2.6 kmh S 3.1 mph5.0 kmh 30.24 in1024.0 mb 0.00 in0.0 mm 0.00 in0.0 mm 0.12 in3.0 mm
06:45 AM 65.8°F18.8°C 64.7°F18.2°C 96% 1.6 mph S2.6 kmh S 3.1 mph5.0 kmh 30.25 in1024.4 mb 0.00 in0.0 mm 0.00 in0.0 mm 0.12 in3.0 mm
07:00 AM 66.2°F19.0°C 65.0°F18.3°C 96% 3.8 mph S6.1 kmh S 4.5 mph7.2 kmh 30.24 in1024.0 mb 0.00 in0.0 mm 0.00 in0.0 mm 0.12 in3.0 mm
07:15 AM 67.5°F19.7°C 66.3°F19.1°C 96% 1.6 mph SSE2.6 kmh SSE 4.5 mph7.2 kmh 30.23 in1023.7 mb 0.00 in0.0 mm 0.00 in0.0 mm 0.12 in3.0 mm
07:30 AM 68.2°F20.1°C 65.8°F18.8°C 92% 4.5 mph S7.2 kmh S 6.0 mph9.7 kmh 30.24 in1024.0 mb 0.00 in0.0 mm 0.00 in0.0 mm 0.12 in3.0 mm
07:45 AM 68.7°F20.4°C 65.0°F18.3°C 88% 1.6 mph SSW2.6 kmh SSW 3.1 mph5.0 kmh 30.24 in1024.0 mb 0.00 in0.0 mm 0.00 in0.0 mm 0.12 in3.0 mm
08:00 AM 69.3°F20.7°C 64.6°F18.1°C 85% 1.6 mph SSW2.6 kmh SSW 3.8 mph6.1 kmh 30.25 in1024.4 mb 0.00 in0.0 mm 0.00 in0.0 mm 0.12 in3.0 mm
08:15 AM 69.8°F21.0°C 64.1°F17.8°C 82% 1.6 mph SSW2.6 kmh SSW 3.1 mph5.0 kmh 30.24 in1024.0 mb 0.00 in0.0 mm 0.00 in0.0 mm 0.12 in3.0 mm
08:30 AM 70.5°F21.4°C 64.0°F17.8°C 80% 0.7 mph SSW1.1 kmh SSW 5.4 mph8.7 kmh 30.25 in1024.4 mb 0.00 in0.0 mm 0.00 in0.0 mm 0.12 in3.0 mm
08:45 AM 71.2°F21.8°C 64.0°F17.8°C 78% 2.2 mph WSW3.5 kmh WSW 5.4 mph8.7 kmh 30.24 in1024.0 mb 0.00 in0.0 mm 0.00 in0.0 mm 0.12 in3.0 mm
09:00 AM 72.1°F22.3°C 63.8°F17.7°C 75% 3.8 mph WSW6.1 kmh WSW 6.9 mph11.1 kmh 30.25 in1024.4 mb 0.00 in0.0 mm 0.00 in0.0 mm 0.12 in3.0 mm
09:15 AM 72.5°F22.5°C 63.0°F17.2°C 72% 3.1 mph NW5.0 kmh NW 4.5 mph7.2 kmh 30.24 in1024.0 mb 0.00 in0.0 mm 0.00 in0.0 mm 0.12 in3.0 mm
09:30 AM 72.9°F22.7°C 63.3°F17.4°C 72% 4.5 mph NW7.2 kmh NW 6.0 mph9.7 kmh 30.25 in1024.4 mb 0.00 in0.0 mm 0.00 in0.0 mm 0.12 in3.0 mm
09:45 AM 73.8°F23.2°C 63.0°F17.2°C 69% 0.7 mph SW1.1 kmh SW 5.4 mph8.7 kmh 30.26 in1024.7 mb 0.00 in0.0 mm 0.00 in0.0 mm 0.12 in3.0 mm
10:00 AM 74.7°F23.7°C 63.0°F17.2°C 67% 4.5 mph SSW7.2 kmh SSW 6.9 mph11.1 kmh 30.26 in1024.7 mb 0.00 in0.0 mm 0.00 in0.0 mm 0.12 in3.0 mm
10:15 AM 75.0°F23.9°C 62.0°F16.7°C 64% 5.4 mph W8.7 kmh W 6.9 mph11.1 kmh 30.26 in1024.7 mb 0.00 in0.0 mm 0.00 in0.0 mm 0.12 in3.0 mm
10:30 AM 75.4°F24.1°C 62.4°F16.9°C 64% 5.4 mph NW8.7 kmh NW 7.6 mph12.2 kmh 30.26 in1024.7 mb 0.00 in0.0 mm 0.00 in0.0 mm 0.12 in3.0 mm
10:45 AM 75.4°F24.1°C 61.9°F16.6°C 63% 3.8 mph WSW6.1 kmh WSW 6.0 mph9.7 kmh 30.26 in1024.7 mb 0.00 in0.0 mm 0.00 in0.0 mm 0.12 in3.0 mm
11:00 AM 75.7°F24.3°C 62.2°F16.8°C 63% 3.1 mph SSW5.0 kmh SSW 3.8 mph6.1 kmh 30.25 in1024.4 mb 0.00 in0.0 mm 0.00 in0.0 mm 0.12 in3.0 mm
11:15 AM 75.9°F24.4°C 62.0°F16.7°C 62% 3.8 mph W6.1 kmh W 6.0 mph9.7 kmh 30.25 in1024.4 mb 0.00 in0.0 mm 0.00 in0.0 mm 0.12 in3.0 mm
11:30 AM 76.3°F24.6°C 61.8°F16.6°C 61% 3.8 mph SW6.1 kmh SW 7.6 mph12.2 kmh 30.25 in1024.4 mb 0.00 in0.0 mm 0.00 in0.0 mm 0.12 in3.0 mm
11:45 AM 76.5°F24.7°C 62.0°F16.7°C 61% 3.1 mph WSW5.0 kmh WSW 6.0 mph9.7 kmh 30.25 in1024.4 mb 0.00 in0.0 mm 0.00 in0.0 mm 0.12 in3.0 mm
12:00 PM 76.6°F24.8°C 62.2°F16.8°C 61% 3.8 mph S6.1 kmh S 6.0 mph9.7 kmh 30.25 in1024.4 mb 0.00 in0.0 mm 0.00 in0.0 mm 0.12 in3.0 mm
12:15 PM 76.6°F24.8°C 61.7°F16.5°C 60% 0.7 mph SSW1.1 kmh SSW 4.5 mph7.2 kmh 30.25 in1024.4 mb 0.00 in0.0 mm 0.00 in0.0 mm 0.12 in3.0 mm
12:30 PM 76.5°F24.7°C 61.5°F16.4°C 60% 3.1 mph S5.0 kmh S 6.0 mph9.7 kmh 30.25 in1024.4 mb 0.00 in0.0 mm 0.00 in0.0 mm 0.12 in3.0 mm
12:45 PM 76.1°F24.5°C 60.2°F15.7°C 58% 0.7 mph SW1.1 kmh SW 6.9 mph11.1 kmh 30.24 in1024.0 mb 0.00 in0.0 mm 0.00 in0.0 mm 0.12 in3.0 mm
01:00 PM 75.6°F24.2°C 61.2°F16.2°C 61% 2.2 mph SW3.5 kmh SW 4.5 mph7.2 kmh 30.24 in1024.0 mb 0.00 in0.0 mm 0.00 in0.0 mm 0.12 in3.0 mm
01:15 PM 75.4°F24.1°C 61.9°F16.6°C 63% 0.7 mph WSW1.1 kmh WSW 3.8 mph6.1 kmh 30.23 in1023.7 mb 0.00 in0.0 mm 0.00 in0.0 mm 0.12 in3.0 mm
01:30 PM 75.9°F24.4°C 62.0°F16.7°C 62% 3.1 mph W5.0 kmh W 6.0 mph9.7 kmh 30.23 in1023.7 mb 0.00 in0.0 mm 0.00 in0.0 mm 0.12 in3.0 mm
01:45 PM 76.6°F24.8°C 62.2°F16.8°C 61% 3.1 mph NW5.0 kmh NW 4.5 mph7.2 kmh 30.22 in1023.4 mb 0.00 in0.0 mm 0.00 in0.0 mm 0.12 in3.0 mm
02:00 PM 78.1°F25.6°C 63.5°F17.5°C 61% 0.7 mph WNW1.1 kmh WNW 6.0 mph9.7 kmh 30.22 in1023.4 mb 0.00 in0.0 mm 0.00 in0.0 mm 0.12 in3.0 mm
02:15 PM 79.0°F26.1°C 61.9°F16.6°C 56% 0.7 mph ESE1.1 kmh ESE 3.1 mph5.0 kmh 30.22 in1023.4 mb 0.00 in0.0 mm 0.00 in0.0 mm 0.12 in3.0 mm
02:30 PM 79.5°F26.4°C 62.9°F17.2°C 57% 2.2 mph W3.5 kmh W 6.9 mph11.1 kmh 30.22 in1023.4 mb 0.00 in0.0 mm 0.00 in0.0 mm 0.12 in3.0 mm
02:45 PM 80.4°F26.9°C 60.6°F15.9°C 51% 4.5 mph SW7.2 kmh SW 8.3 mph13.4 kmh 30.22 in1023.4 mb 0.00 in0.0 mm 0.00 in0.0 mm 0.12 in3.0 mm
03:00 PM 81.1°F27.3°C 61.3°F16.3°C 51% 3.1 mph SW5.0 kmh SW 6.9 mph11.1 kmh 30.21 in1023.0 mb 0.00 in0.0 mm 0.00 in0.0 mm 0.12 in3.0 mm
03:15 PM 81.0°F27.2°C 61.1°F16.2°C 51% 3.8 mph SW6.1 kmh SW 5.4 mph8.7 kmh 30.21 in1023.0 mb 0.00 in0.0 mm 0.00 in0.0 mm 0.12 in3.0 mm
03:30 PM 80.6°F27.0°C 60.2°F15.7°C 50% 2.2 mph NW3.5 kmh NW 5.4 mph8.7 kmh 30.21 in1023.0 mb 0.00 in0.0 mm 0.00 in0.0 mm 0.12 in3.0 mm
03:45 PM 80.8°F27.1°C 61.0°F16.1°C 51% 3.8 mph W6.1 kmh W 6.0 mph9.7 kmh 30.20 in1022.7 mb 0.00 in0.0 mm 0.00 in0.0 mm 0.12 in3.0 mm
04:00 PM 81.0°F27.2°C 61.1°F16.2°C 51% 3.1 mph SW5.0 kmh SW 4.5 mph7.2 kmh 30.20 in1022.7 mb 0.00 in0.0 mm 0.00 in0.0 mm 0.12 in3.0 mm
04:15 PM 80.2°F26.8°C 59.9°F15.5°C 50% 1.6 mph SSW2.6 kmh SSW 5.4 mph8.7 kmh 30.19 in1022.4 mb 0.00 in0.0 mm 0.00 in0.0 mm 0.12 in3.0 mm
04:30 PM 79.5°F26.4°C 59.8°F15.4°C 51% 1.6 mph S2.6 kmh S 4.5 mph7.2 kmh 30.20 in1022.7 mb 0.00 in0.0 mm 0.00 in0.0 mm 0.12 in3.0 mm
04:45 PM 79.2°F26.2°C 60.0°F15.6°C 52% 3.1 mph S5.0 kmh S 6.9 mph11.1 kmh 30.19 in1022.4 mb 0.00 in0.0 mm 0.00 in0.0 mm 0.12 in3.0 mm
05:00 PM 78.8°F26.0°C 59.7°F15.4°C 52% 0.7 mph SSW1.1 kmh SSW 5.4 mph8.7 kmh 30.19 in1022.4 mb 0.00 in0.0 mm 0.00 in0.0 mm 0.12 in3.0 mm
05:15 PM 79.2°F26.2°C 60.0°F15.6°C 52% 1.6 mph S2.6 kmh S 4.5 mph7.2 kmh 30.18 in1022.0 mb 0.00 in0.0 mm 0.00 in0.0 mm 0.12 in3.0 mm
05:30 PM 79.0°F26.1°C 60.4°F15.8°C 53% 3.1 mph S5.0 kmh S 7.6 mph12.2 kmh 30.18 in1022.0 mb 0.00 in0.0 mm 0.00 in0.0 mm 0.12 in3.0 mm
05:45 PM 77.9°F25.5°C 60.4°F15.8°C 55% 1.6 mph S2.6 kmh S 6.0 mph9.7 kmh 30.19 in1022.4 mb 0.00 in0.0 mm 0.00 in0.0 mm 0.12 in3.0 mm
06:00 PM 77.0°F25.0°C 61.1°F16.2°C 58% 1.6 mph S2.6 kmh S 3.1 mph5.0 kmh 30.18 in1022.0 mb 0.00 in0.0 mm 0.00 in0.0 mm 0.12 in3.0 mm
06:15 PM 76.5°F24.7°C 61.1°F16.2°C 59% 2.2 mph S3.5 kmh S 3.1 mph5.0 kmh 30.18 in1022.0 mb 0.00 in0.0 mm 0.00 in0.0 mm 0.12 in3.0 mm
06:30 PM 75.9°F24.4°C 61.0°F16.1°C 60% 1.6 mph S2.6 kmh S 3.1 mph5.0 kmh 30.18 in1022.0 mb 0.00 in0.0 mm 0.00 in0.0 mm 0.12 in3.0 mm
06:45 PM 75.4°F24.1°C 61.0°F16.1°C 61% 3.1 mph SSE5.0 kmh SSE 3.8 mph6.1 kmh 30.17 in1021.7 mb 0.00 in0.0 mm 0.00 in0.0 mm 0.12 in3.0 mm
07:00 PM 75.2°F24.0°C 60.8°F16.0°C 61% 2.2 mph SE3.5 kmh SE 4.5 mph7.2 kmh 30.17 in1021.7 mb 0.00 in0.0 mm 0.00 in0.0 mm 0.12 in3.0 mm
07:15 PM 74.5°F23.6°C 61.1°F16.2°C 63% 3.8 mph SSE6.1 kmh SSE 6.0 mph9.7 kmh 30.17 in1021.7 mb 0.00 in0.0 mm 0.00 in0.0 mm 0.12 in3.0 mm
07:30 PM 74.1°F23.4°C 60.7°F15.9°C 63% 2.2 mph SSE3.5 kmh SSE 4.5 mph7.2 kmh 30.16 in1021.3 mb 0.00 in0.0 mm 0.00 in0.0 mm 0.12 in3.0 mm
07:45 PM 73.9°F23.3°C 61.0°F16.1°C 64% 3.8 mph S6.1 kmh S 6.9 mph11.1 kmh 30.16 in1021.3 mb 0.00 in0.0 mm 0.00 in0.0 mm 0.12 in3.0 mm
08:00 PM 73.6°F23.1°C 61.1°F16.2°C 65% 1.6 mph SSE2.6 kmh SSE 5.4 mph8.7 kmh 30.16 in1021.3 mb 0.00 in0.0 mm 0.00 in0.0 mm 0.12 in3.0 mm
08:15 PM 73.0°F22.8°C 61.0°F16.1°C 66% 1.6 mph SE2.6 kmh SE 3.8 mph6.1 kmh 30.15 in1021.0 mb 0.00 in0.0 mm 0.00 in0.0 mm 0.12 in3.0 mm
08:30 PM 72.5°F22.5°C 60.9°F16.1°C 67% 2.2 mph SE3.5 kmh SE 3.8 mph6.1 kmh 30.16 in1021.3 mb 0.00 in0.0 mm 0.00 in0.0 mm 0.12 in3.0 mm
08:45 PM 72.1°F22.3°C 62.2°F16.8°C 71% 1.6 mph SE2.6 kmh SE 3.8 mph6.1 kmh 30.15 in1021.0 mb 0.00 in0.0 mm 0.00 in0.0 mm 0.12 in3.0 mm
09:00 PM 72.0°F22.2°C 62.0°F16.7°C 71% 1.6 mph SE2.6 kmh SE 3.1 mph5.0 kmh 30.15 in1021.0 mb 0.00 in0.0 mm 0.00 in0.0 mm 0.12 in3.0 mm
09:15 PM 71.8°F22.1°C 62.3°F16.8°C 72% 2.2 mph SE3.5 kmh SE 3.1 mph5.0 kmh 30.14 in1020.7 mb 0.00 in0.0 mm 0.00 in0.0 mm 0.12 in3.0 mm
09:30 PM 72.0°F22.2°C 62.4°F16.9°C 72% 1.6 mph SE2.6 kmh SE 3.1 mph5.0 kmh 30.15 in1021.0 mb 0.00 in0.0 mm 0.00 in0.0 mm 0.12 in3.0 mm
09:45 PM 71.8°F22.1°C 62.3°F16.8°C 72% Calm Calm 3.8 mph6.1 kmh 30.14 in1020.7 mb 0.00 in0.0 mm 0.00 in0.0 mm 0.12 in3.0 mm
10:00 PM 71.4°F21.9°C 62.3°F16.8°C 73% 9.2 mph NW14.8 kmh NW 18.3 mph29.5 kmh 30.16 in1021.3 mb 0.00 in0.0 mm 0.00 in0.0 mm 0.12 in3.0 mm
10:15 PM 67.8°F19.9°C 60.3°F15.7°C 77% 7.6 mph NW12.2 kmh NW 17.4 mph28.0 kmh 30.17 in1021.7 mb 0.00 in0.0 mm 0.00 in0.0 mm 0.12 in3.0 mm
10:30 PM 66.6°F19.2°C 60.9°F16.1°C 82% 2.2 mph NW3.5 kmh NW 8.3 mph13.4 kmh 30.16 in1021.3 mb 0.00 in0.0 mm 0.00 in0.0 mm 0.12 in3.0 mm
10:45 PM 66.2°F19.0°C 61.6°F16.4°C 85% 1.6 mph NE2.6 kmh NE 3.1 mph5.0 kmh 30.15 in1021.0 mb 0.00 in0.0 mm 0.00 in0.0 mm 0.12 in3.0 mm
11:00 PM 66.0°F18.9°C 62.0°F16.7°C 87% 1.6 mph ESE2.6 kmh ESE 5.4 mph8.7 kmh 30.15 in1021.0 mb 0.01 in0.3 mm 0.01 in0.3 mm 0.13 in3.3 mm
11:15 PM 66.0°F18.9°C 62.7°F17.1°C 89% 3.8 mph SSE6.1 kmh SSE 6.0 mph9.7 kmh 30.15 in1021.0 mb 0.01 in0.3 mm 0.00 in0.0 mm 0.13 in3.3 mm
11:30 PM 66.0°F18.9°C 63.0°F17.2°C 90% 1.6 mph S2.6 kmh S 6.0 mph9.7 kmh 30.16 in1021.3 mb 0.02 in0.5 mm 0.04 in1.0 mm 0.01 in0.3 mm
11:45 PM 66.0°F18.9°C 63.6°F17.6°C 92% 0.7 mph SSE1.1 kmh SSE 6.0 mph9.7 kmh 30.16 in1021.3 mb 0.05 in1.3 mm 0.12 in3.0 mm 0.04 in1.0 mm